createdAt,value
2019-05-04T00:01:25.904Z,18.43
2019-05-04T00:03:54.758Z,15.33
2019-05-04T00:06:22.040Z,16.40
2019-05-04T00:08:50.066Z,19.00
2019-05-04T00:11:17.217Z,16.03
2019-05-04T00:13:44.465Z,16.00
2019-05-04T00:16:11.802Z,18.13
2019-05-04T00:18:39.245Z,17.57
2019-05-04T00:21:06.391Z,16.73
2019-05-04T00:23:35.255Z,21.70
2019-05-04T00:26:04.537Z,18.63
2019-05-04T00:28:31.597Z,18.60
2019-05-04T00:30:58.740Z,19.57
2019-05-04T00:33:45.529Z,20.37
2019-05-04T00:36:16.142Z,25.17
2019-05-04T00:38:45.141Z,22.90
2019-05-04T00:41:12.400Z,20.80
2019-05-04T00:43:39.619Z,23.93
2019-05-04T00:46:06.788Z,28.40
2019-05-04T00:48:34.625Z,22.33
2019-05-04T00:51:01.992Z,20.53
2019-05-04T00:53:29.181Z,26.03
2019-05-04T00:56:15.094Z,24.27
2019-05-04T00:58:45.127Z,21.97
2019-05-04T01:01:31.439Z,22.63
2019-05-04T01:03:58.616Z,19.90
2019-05-04T01:06:26.022Z,28.23
2019-05-04T01:08:55.011Z,27.00
2019-05-04T01:11:22.290Z,24.23
2019-05-04T01:13:49.457Z,22.97
2019-05-04T01:16:16.626Z,22.97
2019-05-04T01:18:44.729Z,23.43
2019-05-04T01:21:11.956Z,20.70
2019-05-04T01:23:39.486Z,22.77
2019-05-04T01:26:07.911Z,25.23
2019-05-04T01:28:35.210Z,25.23
2019-05-04T01:31:04.370Z,21.00
2019-05-04T01:33:49.369Z,26.10
2019-05-04T01:36:17.892Z,29.87
2019-05-04T01:38:55.442Z,22.83
2019-05-04T01:41:36.105Z,28.30
2019-05-04T01:44:04.897Z,22.67
2019-05-04T01:46:34.713Z,31.17
2019-05-04T01:49:02.172Z,22.83
2019-05-04T01:51:29.429Z,23.70
2019-05-04T01:53:56.897Z,22.80
2019-05-04T01:56:27.626Z,24.53
2019-05-04T01:58:59.548Z,34.40
2019-05-04T02:01:26.718Z,26.43
2019-05-04T02:03:55.209Z,27.13
2019-05-04T02:06:24.694Z,28.60
2019-05-04T02:08:56.547Z,25.80
2019-05-04T02:11:25.558Z,27.57
2019-05-04T02:13:52.945Z,28.07
2019-05-04T02:16:20.118Z,27.70
2019-05-04T02:18:47.271Z,28.10
2019-05-04T02:21:15.161Z,23.80
2019-05-04T02:23:44.294Z,28.23
2019-05-04T02:26:19.289Z,26.67
2019-05-04T02:28:55.197Z,28.07
2019-05-04T02:31:22.230Z,24.70
2019-05-04T02:33:49.278Z,26.80
2019-05-04T02:36:16.450Z,25.60
2019-05-04T02:38:46.248Z,24.63
2019-05-04T02:41:45.892Z,25.60
2019-05-04T02:44:16.228Z,26.70
2019-05-04T02:46:45.939Z,25.73
2019-05-04T02:49:35.709Z,29.83
2019-05-04T02:52:06.529Z,33.93
2019-05-04T02:54:32.010Z,34.30
2019-05-04T02:56:59.226Z,26.50
2019-05-04T02:59:26.373Z,29.00
2019-05-04T03:01:55.333Z,33.87
2019-05-04T03:04:22.719Z,28.00
2019-05-04T03:06:49.888Z,25.73
2019-05-04T03:09:17.064Z,27.50
2019-05-04T03:11:45.777Z,28.70
2019-05-04T03:14:15.690Z,28.93
2019-05-04T03:16:47.569Z,39.27
2019-05-04T03:19:31.008Z,30.20
2019-05-04T03:22:06.213Z,30.00
2019-05-04T03:24:35.720Z,25.87
2019-05-04T03:27:05.712Z,31.20
2019-05-04T03:29:31.815Z,37.43
2019-05-04T03:31:59.049Z,31.60
2019-05-04T03:34:52.982Z,35.33
2019-05-04T03:36:59.199Z,31.40
2019-05-04T03:39:26.135Z,28.80
2019-05-04T03:41:55.367Z,31.70
2019-05-04T03:44:25.421Z,29.63
2019-05-04T03:47:16.129Z,25.43
2019-05-04T03:49:46.317Z,23.40
2019-05-04T03:52:35.984Z,41.53
2019-05-04T03:55:05.661Z,33.83
2019-05-04T03:57:32.298Z,38.67
2019-05-04T03:59:59.604Z,36.90
2019-05-04T04:02:26.655Z,29.10
2019-05-04T04:04:55.570Z,35.47
2019-05-04T04:07:25.386Z,37.47
2019-05-04T04:09:51.920Z,37.87
2019-05-04T04:12:19.043Z,45.03
2019-05-04T04:14:46.243Z,36.63
2019-05-04T04:17:28.973Z,35.10
2019-05-04T04:19:56.176Z,47.20
2019-05-04T04:22:25.881Z,33.80
2019-05-04T04:24:52.908Z,32.87
2019-05-04T04:27:25.791Z,36.60
2019-05-04T04:29:55.780Z,42.80
2019-05-04T04:32:22.077Z,41.60
2019-05-04T04:34:49.268Z,35.37
2019-05-04T04:37:16.518Z,39.77
2019-05-04T04:39:46.256Z,39.90
2019-05-04T04:42:12.818Z,39.23
2019-05-04T04:44:39.970Z,42.00
2019-05-04T04:47:07.145Z,27.60
2019-05-04T04:49:36.764Z,21.90
2019-05-04T04:52:06.386Z,15.60
2019-05-04T04:54:35.140Z,13.30
2019-05-04T04:57:17.768Z,12.37
2019-05-04T04:59:51.662Z,11.57
2019-05-04T05:02:18.840Z,12.43
2019-05-04T05:04:45.986Z,13.43
2019-05-04T05:07:15.310Z,16.43
2019-05-04T05:09:48.764Z,14.53
2019-05-04T05:12:11.589Z,7.63
2019-05-04T05:14:38.784Z,9.10
2019-05-04T05:17:05.971Z,6.33
2019-05-04T05:19:34.901Z,5.27
2019-05-04T05:22:02.232Z,3.30
2019-05-04T05:24:29.519Z,2.73
2019-05-04T05:26:57.265Z,5.30
2019-05-04T05:29:25.258Z,3.10
2019-05-04T05:32:10.214Z,4.40
2019-05-04T05:34:54.560Z,2.63
2019-05-04T05:37:21.759Z,3.97
2019-05-04T05:39:57.565Z,2.93
2019-05-04T05:42:18.961Z,3.03
2019-05-04T05:44:46.307Z,3.90
2019-05-04T05:47:26.905Z,5.60
2019-05-04T05:50:09.646Z,11.23
2019-05-04T05:52:50.355Z,1.70
2019-05-04T05:55:35.501Z,4.10
2019-05-04T05:58:26.241Z,2.20
2019-05-04T06:01:31.635Z,2.73
2019-05-04T06:04:27.240Z,1.87
2019-05-04T06:06:58.911Z,2.40
2019-05-04T06:09:28.620Z,4.23
2019-05-04T06:11:58.064Z,4.63
2019-05-04T06:14:36.134Z,1.37
2019-05-04T06:17:24.521Z,2.77
2019-05-04T06:20:01.089Z,1.20
2019-05-04T06:22:36.547Z,3.90
2019-05-04T06:25:37.659Z,3.90
2019-05-04T06:28:19.963Z,13.33
2019-05-04T06:31:11.359Z,1.33
2019-05-04T06:33:34.829Z,1.60
2019-05-04T06:36:25.313Z,1.20
2019-05-04T06:39:10.668Z,1.47
2019-05-04T06:41:37.865Z,1.17
2019-05-04T06:44:28.485Z,2.23
2019-05-04T06:47:09.371Z,1.67
2019-05-04T06:49:30.383Z,5.93
2019-05-04T06:52:06.371Z,5.03
2019-05-04T06:54:51.875Z,1.47
2019-05-04T06:57:41.618Z,1.83
2019-05-04T07:00:08.153Z,1.10
2019-05-04T07:02:39.473Z,1.20
2019-05-04T07:05:04.483Z,1.33
2019-05-04T07:07:31.965Z,3.30
2019-05-04T07:10:00.195Z,1.53
2019-05-04T07:12:30.139Z,1.43
2019-05-04T07:14:57.424Z,1.30
2019-05-04T07:17:24.877Z,1.20
2019-05-04T07:20:00.088Z,2.47
2019-05-04T07:22:21.183Z,3.03
2019-05-04T07:24:48.337Z,1.87
2019-05-04T07:27:18.330Z,2.00
2019-05-04T07:29:45.106Z,2.40
2019-05-04T07:32:15.185Z,1.67
2019-05-04T07:34:47.266Z,1.43
2019-05-04T07:37:45.766Z,2.33
2019-05-04T07:40:35.434Z,3.50
2019-05-04T07:43:04.845Z,1.40
2019-05-04T07:45:32.193Z,1.20
2019-05-04T07:48:04.009Z,1.40
2019-05-04T07:50:28.535Z,2.70
2019-05-04T07:52:59.689Z,6.73
2019-05-04T07:55:24.797Z,1.67
2019-05-04T07:57:51.998Z,1.80
2019-05-04T08:00:19.181Z,1.40
2019-05-04T08:02:48.938Z,2.00
2019-05-04T08:05:25.648Z,3.10
2019-05-04T08:07:44.652Z,3.70
2019-05-04T08:10:12.462Z,2.10
2019-05-04T08:12:57.076Z,2.10
2019-05-04T08:15:16.819Z,1.73
2019-05-04T08:17:45.119Z,2.17
2019-05-04T08:20:20.749Z,3.03
2019-05-04T08:23:02.298Z,1.77
2019-05-04T08:25:29.531Z,1.83
2019-05-04T08:27:56.712Z,5.30
2019-05-04T08:30:25.293Z,4.17
2019-05-04T08:32:54.508Z,1.20
2019-05-04T08:35:26.513Z,1.60
2019-05-04T08:37:50.805Z,10.33
2019-05-04T08:40:17.974Z,2.40
2019-05-04T08:42:48.062Z,8.30
2019-05-04T08:45:16.084Z,2.03
2019-05-04T08:48:09.155Z,1.43
2019-05-04T08:50:46.021Z,6.10
2019-05-04T08:53:14.899Z,4.53
2019-05-04T08:55:50.989Z,1.73
2019-05-04T08:58:29.278Z,3.73
2019-05-04T09:01:04.041Z,2.87
2019-05-04T09:03:29.260Z,2.57
2019-05-04T09:06:12.133Z,3.10
2019-05-04T09:08:26.157Z,1.33
2019-05-04T09:11:06.413Z,2.10
2019-05-04T09:13:23.043Z,2.57
2019-05-04T09:15:57.396Z,1.67
2019-05-04T09:18:19.223Z,2.67
2019-05-04T09:20:46.279Z,2.20
2019-05-04T09:23:14.441Z,2.20
2019-05-04T09:25:42.004Z,3.70
2019-05-04T09:28:12.970Z,3.43
2019-05-04T09:30:38.268Z,2.10
2019-05-04T09:33:09.139Z,2.40
2019-05-04T09:35:35.104Z,2.53
2019-05-04T09:38:04.438Z,2.17
2019-05-04T09:40:31.412Z,3.17
2019-05-04T09:42:58.836Z,3.20
2019-05-04T09:45:28.361Z,1.70
2019-05-04T09:47:59.717Z,2.47
2019-05-04T09:50:24.929Z,4.73
2019-05-04T09:53:13.838Z,3.10
2019-05-04T09:55:26.633Z,4.27
2019-05-04T09:58:15.749Z,3.37
2019-05-04T10:00:41.836Z,5.53
2019-05-04T10:03:08.994Z,3.40
2019-05-04T10:05:36.109Z,2.87
2019-05-04T10:08:04.293Z,2.23
2019-05-04T10:10:31.900Z,9.37
2019-05-04T10:13:08.416Z,6.30
2019-05-04T10:15:54.299Z,4.10
2019-05-04T10:18:21.550Z,3.93
2019-05-04T10:20:48.800Z,4.33
2019-05-04T10:23:15.887Z,2.50
2019-05-04T10:25:44.499Z,2.83
2019-05-04T10:28:11.684Z,3.00
2019-05-04T10:30:38.857Z,3.93
2019-05-04T10:33:07.099Z,3.83
2019-05-04T10:35:34.799Z,5.60
2019-05-04T10:38:02.146Z,3.37
2019-05-04T10:40:29.622Z,5.20
2019-05-04T10:43:03.279Z,4.40
2019-05-04T10:45:26.001Z,4.10
2019-05-04T10:47:54.282Z,5.20
2019-05-04T10:50:21.553Z,3.57
2019-05-04T10:52:48.749Z,5.00
2019-05-04T10:55:16.221Z,8.63
2019-05-04T10:57:45.050Z,3.93
2019-05-04T11:00:14.569Z,3.40
2019-05-04T11:02:41.770Z,9.63
2019-05-04T11:05:08.931Z,2.83
2019-05-04T11:07:36.411Z,4.00
2019-05-04T11:10:04.985Z,4.30
2019-05-04T11:12:32.281Z,4.20
2019-05-04T11:14:59.741Z,3.43
2019-05-04T11:17:26.939Z,4.73
2019-05-04T11:19:55.673Z,13.57
2019-05-04T11:22:22.985Z,8.47
2019-05-04T11:25:09.826Z,4.30
2019-05-04T11:27:37.492Z,7.37
2019-05-04T11:30:04.849Z,4.90
2019-05-04T11:32:34.748Z,7.27
2019-05-04T11:35:01.908Z,3.30
2019-05-04T11:37:29.194Z,5.17
2019-05-04T11:39:56.392Z,8.73
2019-05-04T11:42:24.743Z,6.73
2019-05-04T11:44:51.960Z,6.03
2019-05-04T11:47:19.212Z,4.60
2019-05-04T11:49:46.378Z,5.40
2019-05-04T11:52:14.712Z,6.17
2019-05-04T11:54:42.048Z,12.03
2019-05-04T11:57:09.097Z,7.53
2019-05-04T11:59:36.301Z,16.43
2019-05-04T12:02:04.934Z,8.73
2019-05-04T12:05:10.044Z,11.50
2019-05-04T12:07:44.944Z,9.40
2019-05-04T12:10:20.486Z,9.03
2019-05-04T12:12:47.592Z,5.50
2019-05-04T12:15:15.032Z,5.10
2019-05-04T12:17:42.100Z,6.87
2019-05-04T12:20:09.852Z,5.73
2019-05-04T12:22:37.065Z,5.70
2019-05-04T12:25:04.995Z,6.93
2019-05-04T12:27:32.622Z,5.53
2019-05-04T12:29:59.825Z,6.90
2019-05-04T12:32:27.010Z,7.10
2019-05-04T12:34:55.021Z,4.73
2019-05-04T12:37:22.274Z,4.90
2019-05-04T12:39:49.439Z,7.27
2019-05-04T12:42:16.657Z,7.37
2019-05-04T12:44:45.103Z,8.93
2019-05-04T12:47:12.314Z,8.50
2019-05-04T12:49:39.432Z,7.87
2019-05-04T12:52:06.626Z,6.70
2019-05-04T12:54:35.987Z,8.03
2019-05-04T12:57:05.341Z,5.20
2019-05-04T12:59:34.699Z,9.20
2019-05-04T13:02:01.980Z,5.83
2019-05-04T13:04:29.172Z,6.10
2019-05-04T13:06:56.329Z,5.50
2019-05-04T13:09:23.530Z,6.73
2019-05-04T13:11:50.758Z,6.10
2019-05-04T13:14:18.459Z,5.17
2019-05-04T13:16:45.707Z,6.87
2019-05-04T13:19:12.902Z,5.10
2019-05-04T13:21:40.342Z,5.93
2019-05-04T13:24:07.554Z,5.13
2019-05-04T13:26:34.762Z,5.70
2019-05-04T13:29:05.429Z,8.60
2019-05-04T13:31:35.171Z,11.13
2019-05-04T13:34:02.174Z,6.20
2019-05-04T13:36:29.303Z,8.53
2019-05-04T13:38:56.554Z,7.70
2019-05-04T13:41:25.547Z,2.90
2019-05-04T13:43:54.844Z,5.10
2019-05-04T13:46:22.011Z,4.00
2019-05-04T13:48:49.865Z,6.20
2019-05-04T13:51:17.383Z,9.00
2019-05-04T13:53:46.147Z,4.80
2019-05-04T13:56:29.748Z,6.97
2019-05-04T13:59:05.320Z,6.60
2019-05-04T14:01:48.089Z,10.30
2019-05-04T14:04:18.938Z,7.63
2019-05-04T14:06:46.493Z,7.07
2019-05-04T14:09:14.976Z,7.17
2019-05-04T14:11:44.159Z,4.37
2019-05-04T14:14:11.372Z,5.50
2019-05-04T14:16:38.610Z,4.93
2019-05-04T14:19:05.760Z,4.87
2019-05-04T14:21:32.945Z,4.57
2019-05-04T14:24:00.126Z,4.30
2019-05-04T14:26:27.557Z,9.50
2019-05-04T14:28:55.178Z,6.33
2019-05-04T14:31:24.466Z,6.80
2019-05-04T14:33:51.511Z,3.47
2019-05-04T14:36:18.754Z,5.60
2019-05-04T14:38:46.025Z,5.50
2019-05-04T14:41:15.331Z,4.87
2019-05-04T14:43:45.387Z,4.30
2019-05-04T14:46:36.906Z,4.20
2019-05-04T14:49:06.398Z,9.07
2019-05-04T14:51:34.673Z,4.60
2019-05-04T14:54:02.110Z,6.80
2019-05-04T14:56:29.756Z,6.00
2019-05-04T14:58:59.487Z,4.50
2019-05-04T15:01:26.592Z,6.07
2019-05-04T15:03:54.186Z,6.47
2019-05-04T15:06:21.459Z,5.27
2019-05-04T15:08:48.783Z,5.50
2019-05-04T15:11:15.952Z,7.30
2019-05-04T15:13:44.877Z,10.33
2019-05-04T15:16:12.187Z,8.10
2019-05-04T15:18:57.881Z,6.37
2019-05-04T15:21:25.142Z,7.23
2019-05-04T15:23:54.528Z,12.20
2019-05-04T15:26:21.397Z,5.63
2019-05-04T15:28:48.594Z,5.23
2019-05-04T15:31:15.725Z,4.10
2019-05-04T15:33:44.980Z,4.20
2019-05-04T15:36:14.068Z,5.50
2019-05-04T15:38:41.396Z,5.40
2019-05-04T15:41:08.585Z,7.90
2019-05-04T15:43:38.786Z,4.97
2019-05-04T15:46:06.001Z,5.97
2019-05-04T15:48:34.944Z,4.60
2019-05-04T15:51:15.318Z,4.00
2019-05-04T15:54:05.316Z,3.97
2019-05-04T15:56:39.578Z,5.00
2019-05-04T15:59:10.560Z,4.50
2019-05-04T16:01:37.999Z,5.70
2019-05-04T16:04:05.182Z,4.70
2019-05-04T16:06:34.278Z,6.80
2019-05-04T16:09:04.972Z,5.80
2019-05-04T16:11:34.894Z,6.17
2019-05-04T16:14:02.596Z,4.23
2019-05-04T16:16:29.958Z,6.00
2019-05-04T16:18:57.426Z,5.67
2019-05-04T16:21:24.830Z,5.37
2019-05-04T16:23:52.334Z,4.40
2019-05-04T16:26:20.412Z,5.03
2019-05-04T16:28:47.737Z,5.10
2019-05-04T16:31:17.150Z,5.13
2019-05-04T16:33:45.203Z,4.60
2019-05-04T16:36:14.041Z,5.13
2019-05-04T16:38:41.623Z,6.50
2019-05-04T16:41:08.819Z,6.73
2019-05-04T16:43:36.000Z,5.10
2019-05-04T16:46:05.201Z,5.07
2019-05-04T16:48:34.669Z,5.50
2019-05-04T16:51:29.343Z,4.70
2019-05-04T16:53:56.679Z,3.70
2019-05-04T16:56:24.954Z,6.47
2019-05-04T16:58:52.391Z,4.00
2019-05-04T17:01:54.895Z,5.33
2019-05-04T17:04:40.793Z,7.63
2019-05-04T17:07:07.983Z,4.20
2019-05-04T17:09:35.530Z,4.20
2019-05-04T17:12:04.794Z,6.60
2019-05-04T17:14:32.261Z,3.70
2019-05-04T17:16:59.844Z,4.80
2019-05-04T17:19:28.660Z,4.37
2019-05-04T17:22:05.755Z,6.50
2019-05-04T17:24:36.641Z,4.77
2019-05-04T17:27:04.064Z,4.73
2019-05-04T17:29:31.402Z,4.60
2019-05-04T17:31:58.793Z,4.13
2019-05-04T17:34:26.619Z,5.13
2019-05-04T17:36:55.029Z,3.43
2019-05-04T17:39:22.889Z,4.70
2019-05-04T17:42:08.475Z,5.10
2019-05-04T17:44:45.307Z,4.20
2019-05-04T17:47:12.523Z,4.90
2019-05-04T17:49:39.770Z,3.90
2019-05-04T17:52:06.896Z,4.60
2019-05-04T17:54:35.078Z,4.03
2019-05-04T17:57:02.279Z,3.20
2019-05-04T17:59:34.690Z,4.03
2019-05-04T18:02:17.967Z,5.27
2019-05-04T18:04:47.635Z,3.77
2019-05-04T18:07:14.997Z,4.20
2019-05-04T18:09:42.359Z,3.40
2019-05-04T18:12:19.656Z,5.07
2019-05-04T18:14:54.808Z,3.40
2019-05-04T18:17:41.012Z,3.90
2019-05-04T18:20:08.940Z,4.70
2019-05-04T18:22:36.275Z,6.20
2019-05-04T18:25:04.235Z,5.07
2019-05-04T18:27:31.631Z,4.40
2019-05-04T18:29:58.898Z,8.53
2019-05-04T18:32:26.144Z,4.93
2019-05-04T18:34:55.124Z,5.37
2019-05-04T18:37:22.416Z,3.87
2019-05-04T18:39:49.952Z,3.10
2019-05-04T18:42:19.157Z,3.63
2019-05-04T18:45:00.212Z,4.20
2019-05-04T18:47:37.595Z,6.23
2019-05-04T18:50:05.451Z,4.40
2019-05-04T18:52:32.906Z,5.60
2019-05-04T18:55:00.149Z,7.63
2019-05-04T18:57:27.330Z,8.30
2019-05-04T18:59:54.995Z,4.40
2019-05-04T19:02:22.782Z,3.30
2019-05-04T19:04:50.071Z,4.30
2019-05-04T19:07:41.655Z,3.57
2019-05-04T19:10:10.036Z,4.37
2019-05-04T19:12:37.570Z,8.20
2019-05-04T19:15:05.355Z,4.93
2019-05-04T19:17:32.623Z,3.93
2019-05-04T19:20:00.123Z,3.27
2019-05-04T19:22:27.502Z,3.93
2019-05-04T19:25:07.241Z,3.80
2019-05-04T19:27:35.382Z,7.00
2019-05-04T19:30:06.251Z,2.30
2019-05-04T19:32:32.054Z,2.47
2019-05-04T19:34:59.558Z,3.87
2019-05-04T19:37:26.941Z,3.50
2019-05-04T19:39:55.060Z,3.80
2019-05-04T19:42:36.037Z,2.63
2019-05-04T19:45:22.032Z,3.10
2019-05-04T19:47:49.205Z,2.30
2019-05-04T19:50:16.514Z,5.63
2019-05-04T19:52:43.798Z,8.17
2019-05-04T19:55:11.166Z,3.93
2019-05-04T19:57:38.398Z,4.10
2019-05-04T20:00:06.175Z,6.90
2019-05-04T20:02:35.333Z,2.90
2019-05-04T20:05:04.923Z,3.60
2019-05-04T20:07:37.036Z,4.50
2019-05-04T20:10:30.353Z,4.83
2019-05-04T20:13:00.790Z,1.87
2019-05-04T20:15:30.897Z,4.07
2019-05-04T20:17:57.149Z,3.10
2019-05-04T20:20:25.016Z,4.90
2019-05-04T20:22:54.590Z,3.60
2019-05-04T20:25:21.903Z,3.00
2019-05-04T20:27:49.331Z,5.83
2019-05-04T20:30:16.799Z,4.10
2019-05-04T20:32:44.948Z,3.63
2019-05-04T20:35:12.397Z,4.40
2019-05-04T20:37:39.612Z,5.63
2019-05-04T20:40:07.405Z,3.37
2019-05-04T20:42:35.259Z,2.13
2019-05-04T20:45:09.662Z,2.07
2019-05-04T20:48:02.192Z,2.97
2019-05-04T20:50:29.606Z,4.90
2019-05-04T20:53:04.754Z,3.50
2019-05-04T20:55:32.041Z,4.23
2019-05-04T20:57:59.486Z,3.90
2019-05-04T21:00:26.911Z,11.60
2019-05-04T21:02:55.781Z,3.30
2019-05-04T21:05:35.380Z,5.97
2019-05-04T21:08:04.765Z,4.60
2019-05-04T21:10:31.842Z,3.13
2019-05-04T21:12:59.593Z,3.97
2019-05-04T21:15:26.706Z,3.03
2019-05-04T21:18:04.782Z,4.77
2019-05-04T21:21:06.758Z,4.70
2019-05-04T21:23:35.601Z,2.70
2019-05-04T21:26:04.467Z,2.47
2019-05-04T21:28:31.786Z,3.97
2019-05-04T21:30:59.026Z,3.47
2019-05-04T21:33:26.420Z,4.43
2019-05-04T21:35:55.190Z,4.03
2019-05-04T21:38:24.904Z,3.63
2019-05-04T21:40:54.712Z,3.13
2019-05-04T21:43:24.616Z,6.23
2019-05-04T21:46:00.780Z,2.60
2019-05-04T21:48:50.252Z,4.07
2019-05-04T21:51:18.407Z,9.70
2019-05-04T21:53:45.641Z,2.90
2019-05-04T21:56:14.753Z,7.33
2019-05-04T21:58:41.987Z,3.87
2019-05-04T22:01:24.497Z,4.57
2019-05-04T22:03:56.019Z,2.83
2019-05-04T22:06:24.939Z,4.30
2019-05-04T22:08:54.273Z,4.20
2019-05-04T22:11:21.453Z,4.67
2019-05-04T22:13:48.747Z,5.20
2019-05-04T22:16:15.918Z,5.03
2019-05-04T22:18:45.196Z,3.63
2019-05-04T22:21:14.731Z,4.60
2019-05-04T22:23:44.418Z,3.87
2019-05-04T22:26:11.352Z,10.40
2019-05-04T22:28:38.604Z,4.20
2019-05-04T22:31:06.411Z,2.70
2019-05-04T22:33:35.558Z,2.63
2019-05-04T22:36:08.226Z,3.93
2019-05-04T22:38:36.685Z,6.47
2019-05-04T22:41:05.278Z,4.10
2019-05-04T22:43:34.249Z,4.50
2019-05-04T22:46:01.760Z,7.40
2019-05-04T22:48:28.929Z,6.30
2019-05-04T22:50:56.135Z,6.47
2019-05-04T22:53:28.507Z,4.90
2019-05-04T22:56:00.624Z,7.80
2019-05-04T22:58:46.129Z,3.80
2019-05-04T23:01:25.019Z,3.77
2019-05-04T23:04:04.847Z,3.90
2019-05-04T23:06:32.224Z,4.90
2019-05-04T23:08:59.443Z,7.20
2019-05-04T23:11:26.842Z,5.03
2019-05-04T23:13:56.654Z,4.77
2019-05-04T23:16:25.530Z,2.67
2019-05-04T23:19:00.055Z,6.03
2019-05-04T23:21:21.509Z,4.67
2019-05-04T23:23:48.765Z,4.07
2019-05-04T23:26:15.859Z,5.63
2019-05-04T23:28:45.340Z,4.87
2019-05-04T23:31:16.269Z,3.90
2019-05-04T23:33:41.807Z,4.93
2019-05-04T23:36:08.964Z,5.53
2019-05-04T23:38:36.158Z,4.20
2019-05-04T23:41:04.985Z,3.57
2019-05-04T23:43:32.308Z,7.73
2019-05-04T23:45:59.581Z,5.40
2019-05-04T23:48:26.751Z,4.53
2019-05-04T23:50:53.878Z,5.83
2019-05-04T23:53:21.035Z,3.03
2019-05-04T23:55:48.492Z,4.77
2019-05-04T23:58:48.849Z,3.20
